Time;durP1;ratioP1;P1;durP2;ratioP2;P2;SDS_P1;SDS_P2;PMS_P1;PMS_P2;Temp;Humidity;BMP_temperature;BMP_pressure;BME280_temperature;BME280_humidity;BME280_pressure;Samples;Min_cycle;Max_cycle;Signal;HPM_P1;HPM_P2
2021/04/29 00:01:52;;;;;;;9.70;8.23;;;;;;;12.42;100.00;98927.60;616824;229;24859;-73
2021/04/29 00:04:20;;;;;;;10.73;8.53;;;;;;;12.41;100.00;98930.71;630879;225;23882;-73
2021/04/29 00:06:48;;;;;;;11.30;9.10;;;;;;;12.26;100.00;98935.20;633607;225;24850;-74
2021/04/29 00:09:16;;;;;;;9.03;7.60;;;;;;;11.85;100.00;98939.72;634835;225;24869;-73
2021/04/29 00:11:44;;;;;;;8.97;8.00;;;;;;;11.74;100.00;98947.17;635969;225;24839;-73
2021/04/29 00:14:12;;;;;;;11.27;8.97;;;;;;;11.82;100.00;98944.47;637643;225;24895;-73
2021/04/29 00:16:40;;;;;;;11.13;8.93;;;;;;;11.76;100.00;98943.39;634426;225;23870;-73
2021/04/29 00:19:08;;;;;;;12.20;8.73;;;;;;;11.71;100.00;98948.35;633415;225;24849;-74
2021/04/29 00:21:40;;;;;;;11.80;9.63;;;;;;;11.52;100.00;98945.00;632447;225;24824;-73
2021/04/29 00:24:09;;;;;;;10.83;9.20;;;;;;;11.27;100.00;98954.93;637055;225;31408;-73
2021/04/29 00:26:36;;;;;;;12.80;8.70;;;;;;;11.35;100.00;98960.52;616182;230;24956;-73
2021/04/29 00:29:04;;;;;;;10.20;8.43;;;;;;;11.07;100.00;98957.25;627179;225;24813;-73
2021/04/29 00:31:32;;;;;;;12.20;8.90;;;;;;;10.92;100.00;98955.14;617553;230;24879;-73
2021/04/29 00:34:00;;;;;;;11.00;8.60;;;;;;;11.12;100.00;98956.23;623532;230;24914;-73
2021/04/29 00:36:28;;;;;;;13.20;10.63;;;;;;;11.23;100.00;98953.16;627444;225;32762;-73
2021/04/29 00:38:56;;;;;;;17.00;9.77;;;;;;;11.09;100.00;98963.57;618082;230;23726;-73
2021/04/29 00:41:24;;;;;;;11.67;9.67;;;;;;;11.04;100.00;98966.72;618231;229;24864;-73
2021/04/29 00:43:52;;;;;;;13.37;10.50;;;;;;;11.12;100.00;98968.41;619470;229;24879;-73
2021/04/29 00:46:21;;;;;;;14.10;11.20;;;;;;;11.09;100.00;98966.17;636670;224;24840;-73
2021/04/29 00:48:48;;;;;;;14.10;11.67;;;;;;;11.20;100.00;98972.23;639079;225;28052;-73
2021/04/29 00:51:17;;;;;;;14.77;8.60;;;;;;;11.05;100.00;98976.14;634140;224;24892;-73
2021/04/29 00:53:43;;;;;;;13.40;10.43;;;;;;;11.35;100.00;98970.94;614837;229;25282;-73
2021/04/29 00:56:11;;;;;;;12.60;10.13;;;;;;;11.33;100.00;98967.70;632076;225;24926;-73
2021/04/29 00:58:39;;;;;;;13.70;10.67;;;;;;;11.36;100.00;98969.94;637067;225;24840;-73
2021/04/29 01:01:07;;;;;;;13.30;10.47;;;;;;;11.37;100.00;98973.66;628966;225;24886;-73
2021/04/29 01:03:37;;;;;;;12.77;11.27;;;;;;;11.31;100.00;98975.70;635514;225;24849;-73
2021/04/29 01:06:06;;;;;;;16.60;12.87;;;;;;;11.38;100.00;98975.77;632348;225;24847;-73
2021/04/29 01:08:35;;;;;;;16.50;12.77;;;;;;;11.30;100.00;98977.98;614613;230;24857;-73
2021/04/29 01:11:03;;;;;;;17.30;11.70;;;;;;;11.39;100.00;98974.78;615475;226;24881;-73
2021/04/29 01:13:32;;;;;;;14.77;10.83;;;;;;;11.46;100.00;98974.38;617135;230;24858;-73
2021/04/29 01:16:00;;;;;;;10.93;9.83;;;;;;;11.55;100.00;98973.31;628200;228;24879;-73
2021/04/29 01:18:28;;;;;;;13.63;10.13;;;;;;;11.55;100.00;98977.22;628612;226;28099;-73
2021/04/29 01:21:00;;;;;;;13.97;10.13;;;;;;;11.40;100.00;98977.70;633758;225;24882;-73
2021/04/29 01:23:29;;;;;;;13.33;10.27;;;;;;;11.53;100.00;98973.95;630518;225;24855;-73
2021/04/29 01:25:57;;;;;;;12.27;9.40;;;;;;;11.47;100.00;98985.91;627778;225;24870;-73
2021/04/29 01:28:26;;;;;;;13.50;11.30;;;;;;;11.68;100.00;98981.25;626197;225;32754;-73
2021/04/29 01:30:54;;;;;;;12.43;10.20;;;;;;;11.55;100.00;98982.42;637040;225;23743;-73
2021/04/29 01:33:22;;;;;;;12.40;10.85;;;;;;;11.43;100.00;98998.99;616557;229;33234;-73
2021/04/29 01:35:50;;;;;;;14.23;10.80;;;;;;;11.38;100.00;98999.20;619105;229;23732;-73
2021/04/29 01:38:18;;;;;;;12.33;9.60;;;;;;;11.22;100.00;99000.19;635865;225;24846;-73
2021/04/29 01:40:46;;;;;;;11.10;9.40;;;;;;;11.10;100.00;99001.13;635445;225;24840;-73
2021/04/29 01:43:14;;;;;;;10.90;8.70;;;;;;;11.05;100.00;99004.77;634174;221;23886;-73
2021/04/29 01:45:42;;;;;;;11.43;9.30;;;;;;;11.17;100.00;99007.24;636883;225;24843;-73
2021/04/29 01:48:10;;;;;;;11.43;9.57;;;;;;;11.16;100.00;99013.44;630302;225;24856;-72
2021/04/29 01:50:38;;;;;;;11.80;10.60;;;;;;;11.50;100.00;99006.88;624643;225;33226;-73
2021/04/29 01:53:06;;;;;;;11.10;9.90;;;;;;;11.51;100.00;99013.69;609089;230;33137;-73
2021/04/29 01:55:34;;;;;;;10.53;9.27;;;;;;;11.51;100.00;99020.20;614655;229;24144;-73
2021/04/29 01:58:02;;;;;;;11.93;9.90;;;;;;;11.42;100.00;99031.72;618774;229;33175;-73
2021/04/29 02:00:29;;;;;;;10.97;9.20;;;;;;;11.27;100.00;99035.13;622998;229;24873;-72
2021/04/29 02:03:00;;;;;;;11.77;8.57;;;;;;;11.34;100.00;99034.39;633589;225;23878;-73
2021/04/29 02:05:28;;;;;;;11.43;8.40;;;;;;;11.27;100.00;99035.13;622023;229;24933;-73
2021/04/29 02:07:57;;;;;;;9.37;8.37;;;;;;;11.46;100.00;99031.17;635807;225;24896;-73
2021/04/29 02:10:25;;;;;;;9.73;8.60;;;;;;;11.41;100.00;99034.81;631074;225;24864;-73
2021/04/29 02:12:53;;;;;;;10.27;8.77;;;;;;;11.33;100.00;99040.59;635991;222;24864;-74
2021/04/29 02:15:23;;;;;;;11.73;8.10;;;;;;;11.41;100.00;99040.52;626032;225;24845;-73
2021/04/29 02:17:51;;;;;;;10.73;8.13;;;;;;;11.13;100.00;99038.52;626321;225;24807;-73
2021/04/29 02:20:18;;;;;;;8.63;7.80;;;;;;;11.27;100.00;99040.33;625451;225;24801;-73
2021/04/29 02:22:46;;;;;;;8.00;6.90;;;;;;;11.37;100.00;99041.34;629754;225;24888;-73
2021/04/29 02:25:14;;;;;;;8.23;6.40;;;;;;;11.16;100.00;99039.95;626451;226;25105;-73
2021/04/29 02:27:42;;;;;;;9.70;7.87;;;;;;;11.15;100.00;99046.14;626577;225;25907;-72
2021/04/29 02:30:11;;;;;;;8.47;7.30;;;;;;;11.29;100.00;99053.16;626714;226;26971;-73
2021/04/29 02:32:39;;;;;;;7.67;6.47;;;;;;;11.34;100.00;99054.73;634684;222;24793;-73
2021/04/29 02:35:08;;;;;;;8.30;6.83;;;;;;;11.32;100.00;99055.41;634203;225;24809;-73
2021/04/29 02:37:36;;;;;;;7.20;6.50;;;;;;;11.39;100.00;99055.48;632888;225;24836;-73
2021/04/29 02:40:05;;;;;;;9.03;7.17;;;;;;;11.72;100.00;99054.15;608697;229;32887;-73
2021/04/29 02:42:33;;;;;;;8.40;7.03;;;;;;;11.62;100.00;99058.01;625599;228;24847;-73
2021/04/29 02:45:00;;;;;;;7.47;6.30;;;;;;;11.53;100.00;99062.48;626903;228;23894;-73
2021/04/29 02:47:28;;;;;;;7.00;6.30;;;;;;;11.50;100.00;99068.06;626634;228;24842;-73
2021/04/29 02:49:56;;;;;;;6.87;6.13;;;;;;;11.68;100.00;99073.71;638026;225;25064;-73
2021/04/29 02:52:24;;;;;;;7.00;5.40;;;;;;;11.61;100.00;99079.34;621452;229;24850;-73
2021/04/29 02:54:52;;;;;;;8.37;5.43;;;;;;;11.60;100.00;99076.42;621904;229;24884;-73
2021/04/29 02:57:21;;;;;;;6.30;5.70;;;;;;;11.75;100.00;99076.41;626637;229;23906;-73
2021/04/29 02:59:49;;;;;;;9.80;6.33;;;;;;;11.56;100.00;99069.97;615308;229;23983;-73
2021/04/29 03:02:17;;;;;;;6.33;5.30;;;;;;;11.71;100.00;99073.38;613952;230;27030;-73
2021/04/29 03:04:45;;;;;;;8.10;6.30;;;;;;;11.67;100.00;99066.88;633814;225;24860;-73
2021/04/29 03:07:13;;;;;;;8.13;5.83;;;;;;;11.48;100.00;99072.64;631857;225;24880;-73
2021/04/29 03:09:41;;;;;;;8.43;7.10;;;;;;;11.87;100.00;99071.91;614661;229;32731;-73
2021/04/29 03:12:09;;;;;;;8.60;6.47;;;;;;;11.42;100.00;99078.58;621499;227;25832;-73
2021/04/29 03:14:37;;;;;;;7.83;5.20;;;;;;;11.31;100.00;99082.42;619199;229;24895;-73
2021/04/29 03:17:05;;;;;;;7.20;5.90;;;;;;;11.29;100.00;99085.20;624220;229;24907;-73
2021/04/29 03:19:33;;;;;;;6.03;5.50;;;;;;;11.40;100.00;99087.03;627265;228;24858;-74
2021/04/29 03:22:01;;;;;;;7.47;6.57;;;;;;;11.16;100.00;99082.89;615116;229;24847;-72
2021/04/29 03:24:29;;;;;;;7.17;6.43;;;;;;;11.26;100.00;99092.07;632560;225;24874;-73
2021/04/29 03:26:56;;;;;;;10.33;6.57;;;;;;;11.36;100.00;99090.49;636133;225;24933;-73
2021/04/29 03:29:25;;;;;;;7.07;6.37;;;;;;;11.46;100.00;99091.55;631535;225;26993;-73
2021/04/29 03:31:52;;;;;;;7.43;6.73;;;;;;;11.53;100.00;99093.23;633645;225;24860;-73
2021/04/29 03:34:20;;;;;;;7.80;5.83;;;;;;;11.50;100.00;99089.70;637163;225;24853;-73
2021/04/29 03:36:48;;;;;;;8.67;7.87;;;;;;;11.66;100.00;99093.92;636545;224;24886;-73
2021/04/29 03:39:16;;;;;;;9.17;8.00;;;;;;;11.43;100.00;99095.81;632258;225;24891;-73
2021/04/29 03:41:44;;;;;;;10.63;8.23;;;;;;;11.26;100.00;99097.73;631956;222;24856;-73
2021/04/29 03:44:12;;;;;;;13.30;7.90;;;;;;;11.18;100.00;99106.94;634524;225;25085;-73
2021/04/29 03:46:40;;;;;;;12.23;8.20;;;;;;;11.29;100.00;99107.82;634025;225;24937;-73
2021/04/29 03:49:07;;;;;;;11.73;9.50;;;;;;;11.64;100.00;99104.21;623953;225;32910;-73
2021/04/29 03:51:35;;;;;;;10.63;9.60;;;;;;;11.52;100.00;99103.34;629844;222;32975;-73
2021/04/29 03:54:04;;;;;;;10.75;9.65;;;;;;;11.54;100.00;99115.72;630565;225;43609;-73
2021/04/29 03:56:32;;;;;;;10.83;8.63;;;;;;;11.34;100.00;99125.01;617961;230;24863;-73
2021/04/29 03:59:00;;;;;;;12.30;8.77;;;;;;;11.20;100.00;99124.48;618453;229;24941;-73
2021/04/29 04:01:28;;;;;;;12.30;10.10;;;;;;;11.34;100.00;99130.22;619495;228;33966;-73
2021/04/29 04:03:55;;;;;;;9.40;8.33;;;;;;;11.25;100.00;99129.96;619084;230;24886;-73
2021/04/29 04:06:23;;;;;;;10.70;9.00;;;;;;;11.16;100.00;99129.73;619560;229;24884;-72
2021/04/29 04:08:51;;;;;;;11.27;9.20;;;;;;;11.17;100.00;99127.45;621399;229;23871;-73
2021/04/29 04:11:19;;;;;;;11.10;9.00;;;;;;;11.05;100.00;99126.24;634937;225;25092;-73
2021/04/29 04:13:47;;;;;;;11.83;9.63;;;;;;;10.89;100.00;99126.69;635346;225;24899;-73
2021/04/29 04:16:16;;;;;;;11.90;9.67;;;;;;;10.89;100.00;99129.78;617177;228;24846;-73
2021/04/29 04:18:43;;;;;;;11.37;9.60;;;;;;;10.93;100.00;99134.45;620338;228;24919;-73
2021/04/29 04:21:11;;;;;;;14.13;9.70;;;;;;;11.02;100.00;99131.31;621958;229;24912;-73
2021/04/29 04:23:39;;;;;;;14.20;10.80;;;;;;;11.02;100.00;99133.10;631071;225;32925;-73
2021/04/29 04:26:07;;;;;;;12.10;9.80;;;;;;;10.95;100.00;99129.88;616707;229;24851;-73
2021/04/29 04:28:34;;;;;;;10.97;8.90;;;;;;;10.94;100.00;99130.86;619127;229;24911;-74
2021/04/29 04:31:02;;;;;;;10.30;9.10;;;;;;;10.90;100.00;99128.30;620533;227;25032;-73
2021/04/29 04:33:30;;;;;;;11.53;9.60;;;;;;;10.95;100.00;99131.67;635528;225;24859;-73
2021/04/29 04:35:58;;;;;;;12.13;9.03;;;;;;;10.89;100.00;99124.09;620528;229;24891;-73
2021/04/29 04:38:26;;;;;;;14.07;9.80;;;;;;;11.05;100.00;99125.75;626197;226;24838;-74
2021/04/29 04:40:54;;;;;;;10.97;9.17;;;;;;;11.17;100.00;99129.55;614629;229;24900;-74
2021/04/29 04:43:22;;;;;;;14.33;10.43;;;;;;;11.40;100.00;99124.78;617404;229;24893;-73
2021/04/29 04:45:50;;;;;;;10.70;9.23;;;;;;;11.72;100.00;99120.57;624219;229;24949;-73
2021/04/29 04:48:18;;;;;;;11.83;9.60;;;;;;;11.81;100.00;99122.60;632692;226;24857;-73
2021/04/29 04:50:46;;;;;;;13.03;9.10;;;;;;;12.03;100.00;99126.92;636120;225;24859;-73
2021/04/29 04:53:14;;;;;;;9.80;8.17;;;;;;;12.09;100.00;99125.37;620194;229;24874;-73
2021/04/29 04:55:47;;;;;;;8.47;7.57;;;;;;;12.32;100.00;99126.06;636532;225;24870;-73
2021/04/29 04:58:11;;;;;;;13.57;7.20;;;;;;;12.04;100.00;99131.14;636136;225;24885;-73
2021/04/29 05:00:39;;;;;;;8.23;7.40;;;;;;;12.00;100.00;99139.51;634263;225;23881;-74
2021/04/29 05:03:06;;;;;;;10.73;8.07;;;;;;;11.84;100.00;99140.50;632589;225;24879;-74
2021/04/29 05:05:34;;;;;;;8.70;7.00;;;;;;;11.47;100.00;99150.44;632497;225;23963;-73
2021/04/29 05:08:02;;;;;;;8.30;7.20;;;;;;;11.44;100.00;99145.59;630374;225;28026;-74
2021/04/29 05:10:31;;;;;;;9.43;7.53;;;;;;;11.28;100.00;99153.87;622834;229;23911;-73
2021/04/29 05:13:00;;;;;;;11.90;7.80;;;;;;;11.22;100.00;99157.16;625530;225;43573;-74
2021/04/29 05:15:30;;;;;;;9.08;7.50;;;;;;;11.39;100.00;99163.03;627037;225;32862;-73
2021/04/29 05:17:58;;;;;;;7.80;7.10;;;;;;;11.24;100.00;99167.39;626217;225;23721;-73
2021/04/29 05:20:26;;;;;;;7.07;6.30;;;;;;;11.22;100.00;99163.66;628295;225;23837;-74
2021/04/29 05:22:54;;;;;;;6.70;6.00;;;;;;;11.19;100.00;99170.52;625742;226;24825;-72
2021/04/29 05:25:22;;;;;;;7.10;5.80;;;;;;;11.19;100.00;99175.73;628926;225;24849;-73
2021/04/29 05:27:50;;;;;;;6.73;5.40;;;;;;;11.26;100.00;99171.92;635964;225;24859;-73
2021/04/29 05:30:19;;;;;;;5.77;5.20;;;;;;;11.18;100.00;99175.41;636858;223;24850;-73
2021/04/29 05:32:47;;;;;;;9.40;5.50;;;;;;;11.20;100.00;99170.84;628395;224;24817;-73
2021/04/29 05:35:14;;;;;;;6.47;5.53;;;;;;;11.26;100.00;99176.66;620232;229;24949;-73
2021/04/29 05:37:42;;;;;;;12.40;5.50;;;;;;;11.41;100.00;99174.09;616595;229;25196;-73
2021/04/29 05:40:11;;;;;;;8.53;5.50;;;;;;;11.37;100.00;99178.52;632226;225;24853;-73
2021/04/29 05:42:39;;;;;;;5.70;5.10;;;;;;;11.46;100.00;99180.88;634557;225;24861;-73
2021/04/29 05:45:09;;;;;;;9.80;5.80;;;;;;;11.54;100.00;99181.28;629984;225;24837;-73
2021/04/29 05:47:37;;;;;;;7.43;6.27;;;;;;;11.45;100.00;99181.05;626814;224;24863;-73
2021/04/29 05:50:06;;;;;;;5.53;5.03;;;;;;;11.43;100.00;99180.43;626126;229;24802;-74
2021/04/29 05:52:34;;;;;;;6.70;5.40;;;;;;;11.49;100.00;99184.92;621717;230;24893;-73
2021/04/29 05:55:02;;;;;;;9.17;5.53;;;;;;;11.68;100.00;99190.92;616409;229;23897;-73
2021/04/29 05:57:29;;;;;;;5.80;4.93;;;;;;;11.75;100.00;99181.42;636132;226;28059;-73
2021/04/29 05:59:57;;;;;;;7.10;4.83;;;;;;;11.77;100.00;99185.14;629731;225;23880;-74
2021/04/29 06:02:31;;;;;;;5.83;5.10;;;;;;;11.90;100.00;99180.16;626263;225;23834;-75
2021/04/29 06:04:59;;;;;;;8.50;5.80;;;;;;;11.94;100.00;99183.20;622623;225;32829;-75
2021/04/29 06:07:27;;;;;;;6.10;5.40;;;;;;;11.94;100.00;99181.91;631307;226;24864;-76
2021/04/29 06:09:55;;;;;;;5.53;5.03;;;;;;;11.77;100.00;99185.95;634360;225;23871;-75
2021/04/29 06:12:23;;;;;;;6.87;4.90;;;;;;;11.56;100.00;99187.15;618438;230;25095;-74
2021/04/29 06:14:51;;;;;;;5.37;4.87;;;;;;;11.56;100.00;99194.96;616107;228;24881;-75
2021/04/29 06:17:19;;;;;;;6.83;4.70;;;;;;;11.49;100.00;99192.23;621151;228;32352;-75
2021/04/29 06:19:47;;;;;;;7.27;5.97;;;;;;;11.46;100.00;99194.39;627160;228;24872;-75
2021/04/29 06:22:14;;;;;;;7.93;5.40;;;;;;;11.66;100.00;99190.29;618735;229;23894;-75
2021/04/29 06:24:43;;;;;;;8.20;5.80;;;;;;;11.80;100.00;99186.92;621491;230;24952;-75
2021/04/29 06:29:42;;;;;;;7.47;5.70;;;;;;;12.55;98.51;99179.89;643860;217;32585;-73
2021/04/29 06:32:10;;;;;;;6.20;5.10;;;;;;;12.68;97.76;99179.55;632648;221;23836;-73
2021/04/29 06:34:38;;;;;;;6.03;5.43;;;;;;;12.63;97.98;99188.41;630799;226;24833;-73
2021/04/29 06:37:05;;;;;;;5.77;4.40;;;;;;;12.86;96.71;99187.45;630248;225;24816;-73
2021/04/29 06:39:33;;;;;;;5.77;4.27;;;;;;;12.98;95.10;99186.78;631364;226;30216;-73
2021/04/29 06:42:01;;;;;;;5.00;4.10;;;;;;;12.65;95.89;99205.17;631993;225;24846;-73
2021/04/29 06:44:30;;;;;;;4.90;4.07;;;;;;;12.86;96.44;99203.92;635258;225;24860;-73
2021/04/29 06:46:57;;;;;;;5.03;4.57;;;;;;;12.66;95.76;99197.66;640154;221;30137;-73
2021/04/29 06:49:27;;;;;;;4.33;3.93;;;;;;;12.66;95.69;99206.29;647878;221;23805;-72
2021/04/29 06:51:55;;;;;;;6.70;4.27;;;;;;;12.33;97.26;99207.70;644154;222;23842;-75
2021/04/29 06:54:22;;;;;;;6.23;4.50;;;;;;;12.05;97.51;99210.13;645749;222;24820;-75
2021/04/29 06:56:50;;;;;;;5.23;4.73;;;;;;;12.02;97.42;99209.19;628807;226;26048;-75
2021/04/29 06:59:18;;;;;;;5.07;4.57;;;;;;;12.09;97.90;99203.56;642432;221;24844;-75
2021/04/29 07:01:46;;;;;;;5.60;4.90;;;;;;;12.55;96.24;99200.27;634420;220;33810;-75
2021/04/29 07:04:14;;;;;;;5.90;5.30;;;;;;;12.38;95.71;99195.72;627512;224;24088;-72
2021/04/29 07:06:42;;;;;;;10.43;4.80;;;;;;;12.52;94.91;99195.88;626795;226;24843;-73
2021/04/29 07:09:10;;;;;;;8.20;4.87;;;;;;;12.56;94.95;99201.88;647886;221;29056;-73
2021/04/29 07:11:38;;;;;;;13.63;4.93;;;;;;;13.50;94.50;99213.57;642882;220;24799;-72
2021/04/29 07:14:06;;;;;;;6.20;5.00;;;;;;;14.21;90.18;99203.30;644072;220;24843;-72
2021/04/29 07:16:33;;;;;;;8.90;5.17;;;;;;;13.48;92.53;99226.82;641756;221;24821;-75
2021/04/29 07:19:01;;;;;;;6.07;5.37;;;;;;;12.85;95.31;99234.92;641090;221;27331;-75
2021/04/29 07:21:32;;;;;;;6.07;5.47;;;;;;;12.54;96.55;99236.97;629644;225;24902;-75
2021/04/29 07:24:00;;;;;;;9.07;5.97;;;;;;;12.75;96.44;99232.59;644188;221;25111;-75
2021/04/29 07:26:28;;;;;;;11.93;6.53;;;;;;;13.07;95.03;99230.52;639476;221;24805;-75
2021/04/29 07:28:56;;;;;;;8.20;6.33;;;;;;;12.68;96.80;99229.12;637368;225;23876;-75
2021/04/29 07:31:24;;;;;;;7.50;6.60;;;;;;;13.37;94.52;99227.32;645017;221;24799;-73
2021/04/29 07:33:52;;;;;;;7.13;6.40;;;;;;;13.90;92.94;99217.29;631725;223;24960;-72
2021/04/29 07:36:20;;;;;;;7.53;6.10;;;;;;;13.61;90.95;99211.25;638764;220;43372;-73
2021/04/29 07:38:48;;;;;;;9.10;6.30;;;;;;;13.63;91.67;99224.94;646687;221;23667;-72
2021/04/29 07:41:15;;;;;;;6.70;6.00;;;;;;;13.42;92.20;99227.59;629083;222;23851;-73
2021/04/29 07:43:43;;;;;;;8.20;7.27;;;;;;;12.80;94.66;99241.17;644002;221;26962;-75
2021/04/29 07:46:11;;;;;;;9.30;6.83;;;;;;;12.73;94.27;99240.30;643026;221;24837;-75
2021/04/29 07:48:39;;;;;;;11.13;6.87;;;;;;;12.84;94.15;99237.22;643878;220;24814;-75
2021/04/29 07:51:07;;;;;;;6.77;5.70;;;;;;;12.76;95.19;99234.70;651437;220;24786;-75
2021/04/29 07:53:35;;;;;;;10.20;6.87;;;;;;;12.67;95.12;99237.13;635095;225;28067;-73
2021/04/29 07:56:03;;;;;;;9.23;6.83;;;;;;;12.69;95.41;99240.36;633743;225;24826;-74
2021/04/29 07:58:31;;;;;;;8.90;6.80;;;;;;;12.69;95.88;99239.86;628754;225;24852;-73
2021/04/29 08:00:59;;;;;;;9.10;6.73;;;;;;;12.70;96.26;99249.80;644932;221;26971;-73
2021/04/29 08:03:27;;;;;;;9.07;6.83;;;;;;;12.63;94.82;99248.90;634566;225;24840;-73
2021/04/29 08:05:54;;;;;;;9.17;7.73;;;;;;;12.29;95.59;99256.80;645717;221;24820;-73
2021/04/29 08:08:22;;;;;;;10.20;7.50;;;;;;;12.71;95.51;99240.98;636799;221;32973;-73
2021/04/29 08:10:50;;;;;;;10.45;7.05;;;;;;;12.70;94.41;99246.70;626414;225;32986;-73
2021/04/29 08:13:18;;;;;;;7.80;6.87;;;;;;;12.71;94.58;99250.11;644101;221;23682;-72
2021/04/29 08:15:46;;;;;;;7.63;6.37;;;;;;;12.44;95.34;99257.60;648788;221;24839;-73
2021/04/29 08:18:14;;;;;;;8.97;7.60;;;;;;;12.61;95.90;99254.80;627656;226;24835;-73
2021/04/29 08:20:42;;;;;;;9.83;7.17;;;;;;;12.48;95.34;99252.33;649215;221;24850;-73
2021/04/29 08:23:10;;;;;;;9.45;7.58;;;;;;;12.81;94.63;99257.62;633684;221;32700;-73
2021/04/29 08:25:38;;;;;;;8.70;7.67;;;;;;;12.91;94.05;99252.44;648181;221;24890;-73
2021/04/29 08:28:06;;;;;;;9.40;7.20;;;;;;;12.83;93.08;99251.27;637906;222;24802;-73
2021/04/29 08:30:34;;;;;;;11.53;7.87;;;;;;;13.16;93.04;99252.11;632189;225;28328;-73
2021/04/29 08:33:02;;;;;;;9.03;7.70;;;;;;;13.78;90.22;99238.41;625123;226;33132;-73
2021/04/29 08:35:30;;;;;;;7.63;6.80;;;;;;;13.91;90.56;99251.08;643041;221;23841;-73
2021/04/29 08:37:57;;;;;;;7.97;7.03;;;;;;;13.43;90.07;99246.18;637016;225;24858;-73
2021/04/29 08:40:27;;;;;;;8.65;7.75;;;;;;;13.87;90.37;99256.89;640520;221;32679;-73
2021/04/29 08:42:53;;;;;;;10.00;7.37;;;;;;;14.04;88.55;99250.37;636198;225;23701;-74
2021/04/29 08:45:22;;;;;;;8.00;7.20;;;;;;;14.19;87.01;99250.26;641042;220;28296;-73
2021/04/29 08:47:50;;;;;;;8.57;6.47;;;;;;;13.92;86.74;99244.85;645925;221;24807;-73
2021/04/29 08:50:18;;;;;;;9.60;7.00;;;;;;;13.74;87.18;99252.37;641126;222;24807;-73
2021/04/29 08:52:45;;;;;;;10.28;8.25;;;;;;;14.04;86.93;99244.33;639045;220;32751;-73
2021/04/29 08:55:16;;;;;;;9.63;8.20;;;;;;;14.44;84.99;99241.48;637766;222;23667;-73
2021/04/29 08:57:44;;;;;;;10.47;7.63;;;;;;;13.90;86.14;99247.35;643387;220;24813;-73
2021/04/29 09:00:13;;;;;;;9.50;7.87;;;;;;;13.58;86.59;99261.28;644221;221;24805;-73
2021/04/29 09:02:41;;;;;;;9.83;7.80;;;;;;;13.43;87.38;99273.61;640992;220;24800;-74
2021/04/29 09:05:11;;;;;;;10.40;8.37;;;;;;;13.49;88.39;99278.07;643102;221;23811;-73
2021/04/29 09:07:40;;;;;;;9.30;7.80;;;;;;;13.75;88.65;99280.61;641855;221;23837;-74
2021/04/29 09:10:09;;;;;;;7.63;6.83;;;;;;;13.85;86.87;99266.23;636407;225;23864;-73
2021/04/29 09:12:43;;;;;;;8.87;7.70;;;;;;;14.42;85.68;99266.50;647597;221;23824;-73
2021/04/29 09:15:07;;;;;;;12.30;8.07;;;;;;;14.31;83.95;99258.38;644025;221;24803;-73
2021/04/29 09:17:35;;;;;;;9.93;8.40;;;;;;;14.29;83.72;99257.77;626781;226;43906;-73
2021/04/29 09:20:03;;;;;;;8.30;7.20;;;;;;;14.49;84.09;99259.50;647395;221;27998;-74
2021/04/29 09:22:30;;;;;;;10.97;7.87;;;;;;;14.49;85.32;99259.50;641669;220;24810;-73
2021/04/29 09:24:58;;;;;;;13.73;8.20;;;;;;;14.20;87.21;99261.83;637634;225;23897;-74
2021/04/29 09:27:29;;;;;;;12.17;8.00;;;;;;;13.79;88.38;99271.39;637181;225;23820;-74
2021/04/29 09:29:56;;;;;;;14.27;8.80;;;;;;;13.57;89.78;99276.66;632381;225;23862;-73
2021/04/29 09:32:30;;;;;;;10.03;8.53;;;;;;;13.90;89.55;99280.83;640836;222;23832;-73
2021/04/29 09:34:58;;;;;;;10.13;8.80;;;;;;;14.31;88.88;99267.03;644725;221;23837;-73
2021/04/29 09:37:28;;;;;;;12.23;8.00;;;;;;;14.34;87.88;99270.56;637703;221;24054;-73
2021/04/29 09:39:56;;;;;;;15.03;10.53;;;;;;;15.31;86.62;99261.20;639273;221;23843;-74
2021/04/29 09:42:32;;;;;;;11.13;7.93;;;;;;;15.57;83.32;99239.95;639611;222;26912;-73
2021/04/29 09:45:00;;;;;;;12.50;9.07;;;;;;;16.07;82.52;99242.48;636788;221;23973;-74
2021/04/29 09:47:27;;;;;;;10.50;9.20;;;;;;;16.51;81.25;99245.70;624586;225;43663;-74
2021/04/29 09:49:55;;;;;;;10.90;9.63;;;;;;;17.17;80.40;99248.53;640255;221;23745;-74
2021/04/29 09:52:29;;;;;;;11.27;8.50;;;;;;;17.41;77.70;99235.14;627337;226;23942;-73
2021/04/29 09:54:57;;;;;;;11.53;9.17;;;;;;;17.33;77.50;99226.22;627875;225;24852;-74
2021/04/29 09:57:26;;;;;;;10.97;8.63;;;;;;;17.25;78.42;99222.02;646169;221;23852;-73
2021/04/29 09:59:56;;;;;;;13.03;9.00;;;;;;;17.90;76.95;99227.80;626397;226;28063;-74
2021/04/29 10:02:23;;;;;;;12.90;8.67;;;;;;;18.54;74.47;99216.47;632557;225;23869;-74
2021/04/29 10:04:52;;;;;;;9.27;8.33;;;;;;;16.75;73.75;99208.78;629579;225;23882;-73
2021/04/29 10:07:20;;;;;;;12.50;10.20;;;;;;;16.67;76.35;99227.88;640687;221;25958;-74
2021/04/29 10:09:48;;;;;;;9.83;7.80;;;;;;;16.52;75.59;99234.70;629113;225;24872;-73
2021/04/29 10:12:16;;;;;;;11.03;9.40;;;;;;;16.54;74.24;99220.34;643866;220;30223;-73
2021/04/29 10:14:43;;;;;;;9.57;8.63;;;;;;;16.47;75.50;99222.20;639575;221;23823;-73
2021/04/29 10:17:11;;;;;;;11.33;9.00;;;;;;;16.96;78.36;99236.55;640945;221;23826;-73
2021/04/29 10:19:40;;;;;;;10.93;9.00;;;;;;;17.27;77.95;99232.31;640387;221;24829;-74
2021/04/29 10:22:08;;;;;;;13.37;8.83;;;;;;;17.32;76.06;99237.75;633893;225;24915;-73
2021/04/29 10:24:35;;;;;;;10.65;9.45;;;;;;;17.19;76.37;99224.99;629146;225;32948;-74
2021/04/29 10:27:03;;;;;;;16.83;9.40;;;;;;;17.21;74.88;99234.78;632431;225;23754;-73
2021/04/29 10:29:31;;;;;;;12.70;8.60;;;;;;;17.84;78.88;99243.62;641872;221;23842;-75
2021/04/29 10:31:59;;;;;;;14.23;8.20;;;;;;;17.53;78.34;99245.27;641053;221;23913;-74
2021/04/29 10:34:36;;;;;;;14.60;8.90;;;;;;;17.61;80.20;99238.44;646962;221;23870;-74
2021/04/29 10:37:15;;;;;;;12.80;8.50;;;;;;;17.68;77.31;99231.31;645138;220;23844;-74
2021/04/29 10:39:51;;;;;;;13.67;9.83;;;;;;;17.12;77.65;99228.66;627868;225;24891;-74
2021/04/29 10:42:19;;;;;;;11.97;9.43;;;;;;;16.82;79.14;99229.75;644498;221;24876;-74
2021/04/29 10:44:46;;;;;;;10.37;9.27;;;;;;;16.15;81.59;99241.45;637833;224;24863;-74
2021/04/29 10:47:22;;;;;;;11.80;9.20;;;;;;;16.07;82.02;99241.69;631874;225;23880;-74
2021/04/29 10:49:50;;;;;;;11.17;9.63;;;;;;;16.02;81.91;99244.90;632135;225;23873;-74
2021/04/29 10:52:18;;;;;;;10.97;9.20;;;;;;;16.48;80.46;99238.25;627791;225;24874;-74
2021/04/29 10:54:50;;;;;;;11.20;9.70;;;;;;;16.70;80.86;99236.16;627607;223;23881;-74
2021/04/29 10:57:18;;;;;;;15.03;9.10;;;;;;;17.20;79.34;99220.03;639390;221;23890;-74
2021/04/29 10:59:47;;;;;;;9.70;8.70;;;;;;;17.45;79.67;99227.95;637885;225;23890;-74
2021/04/29 11:02:22;;;;;;;13.00;8.90;;;;;;;17.42;76.40;99217.03;643461;221;25872;-74
2021/04/29 11:04:52;;;;;;;9.93;8.90;;;;;;;16.70;78.65;99230.91;629675;225;24893;-75
2021/04/29 11:07:18;;;;;;;11.07;9.80;;;;;;;16.29;79.22;99243.84;646574;221;24879;-74
2021/04/29 11:09:57;;;;;;;10.80;8.93;;;;;;;16.40;80.46;99244.22;644258;221;23866;-74
2021/04/29 11:12:24;;;;;;;12.20;9.00;;;;;;;16.12;81.18;99245.30;642458;220;24840;-75
2021/04/29 11:14:53;;;;;;;9.70;8.70;;;;;;;16.27;80.97;99245.06;626694;224;23882;-74
2021/04/29 11:17:21;;;;;;;10.00;8.50;;;;;;;16.80;79.31;99240.97;642726;221;23859;-74
2021/04/29 11:19:49;;;;;;;11.67;8.60;;;;;;;16.73;78.81;99236.24;639168;221;23838;-74
2021/04/29 11:22:19;;;;;;;9.90;8.47;;;;;;;16.78;78.44;99239.06;640097;221;25134;-75
2021/04/29 11:24:47;;;;;;;11.15;9.60;;;;;;;16.78;77.33;99239.06;626176;225;32913;-75
2021/04/29 11:27:20;;;;;;;16.00;9.70;;;;;;;16.59;79.22;99241.52;633342;225;22724;-74
2021/04/29 11:29:48;;;;;;;10.53;9.53;;;;;;;16.82;77.95;99239.74;629458;225;23895;-75
2021/04/29 11:32:16;;;;;;;13.40;9.20;;;;;;;17.03;76.73;99225.98;630758;225;28054;-74